• Join FlightAware (Why Join?)
  • Login
  • US Flag 
02:20PM EDT


 

Airport Tracker/Info


-or-


 

Live Flight TrackerFlight Track Log ✈ N915ED ✈ 27-Jul-2013 ✈ KCRE - KLOZ

Flight Track Log - Related Links

Times and Time Zones

All times are in EDT time to prevent confusion due to time zone crossing. See the N915ED flight status page for this flight to view local times or setup timezone preferences in your user account.

Time Position Orientation Groundspeed Altitude Reporting Facility
EDT Latitude Longitude Course Direction KTS MPH feet Rate Location/Type
11:15AM 33.8500 -79.0475 270° West  Level FlightAware Approximate
11:15AM 33.8567 -79.0339 282° West 141 162 4,900  Level Jacksonville Center
11:16AM 33.8576 -79.1030 280° West  Level FlightAware Approximate
11:16AM 33.8644 -79.0811 281° West 146 168 5,500  Level Jacksonville Center
11:17AM 33.8655 -79.1584 280° West  Level FlightAware Approximate
11:17AM 33.8700 -79.1283 278° West 146 168 6,200  Level Jacksonville Center
11:18AM 33.8667 -79.2145 270° West  Level FlightAware Approximate
11:18AM 33.8756 -79.1756 278° West 141 162 6,800  Level Jacksonville Center
11:19AM 33.8763 -79.2694 282° West  Level FlightAware Approximate
11:19AM 33.8811 -79.2203 279° West 141 162 7,400  Level Jacksonville Center
11:20AM 33.8863 -79.3244 282° West  Level FlightAware Approximate
11:20AM 33.8886 -79.2700 280° West 141 162 8,000  Level Jacksonville Center
11:21AM 33.8963 -79.3793 282° West  Level FlightAware Approximate
11:21AM 33.8942 -79.3175 278° West 141 162 8,600  Level Jacksonville Center
11:22AM 33.8997 -79.3647 278° West 141 162 9,200 600 Climbing Jacksonville Center
11:23AM 33.9072 -79.4119 281° West 141 162 9,900 660 Climbing Jacksonville Center
11:24AM 33.9192 -79.4592 287° West 141 162 10,600 600 Climbing Jacksonville Center
11:25AM 33.9244 -79.5064 278° West 141 162 11,200 600 Climbing Jacksonville Center
11:26AM 33.9322 -79.5561 281° West 141 162 11,800 540 Climbing Jacksonville Center
11:27AM 33.9375 -79.6058 277° West 141 162 12,300 540 Climbing Jacksonville Center
11:28AM 33.9450 -79.6558 280° West 141 162 12,900 600 Climbing Jacksonville Center
11:29AM 33.9506 -79.7031 278° West 147 169 13,500 540 Climbing Jacksonville Center
11:30AM 33.9581 -79.7553 280° West 147 169 14,000 540 Climbing Jacksonville Center
11:31AM 33.9636 -79.8053 278° West 147 169 14,600 600 Climbing Jacksonville Center
11:32AM 33.9731 -79.8525 284° West 152 175 15,300 600 Climbing Jacksonville Center
11:33AM 33.9783 -79.9050 277° West 157 181 15,800 480 Climbing Jacksonville Center
11:34AM 33.9858 -79.9522 281° West 157 181 16,300 420 Climbing Jacksonville Center
11:35AM 33.9889 -79.9997 274° West 157 181 16,700 420 Climbing Jacksonville Center
11:36AM 33.9964 -80.0544 279° West 157 181 17,200 540 Climbing Jacksonville Center
11:37AM 34.0039 -80.1044 280° West 157 181 17,800 360 Climbing Jacksonville Center
11:38AM 34.0111 -80.1569 279° West 157 181 18,000 60 Climbing Jacksonville Center
11:39AM 34.0189 -80.2167 279° West 162 186 18,000  Level Jacksonville Center
11:40AM 34.0261 -80.2742 279° West 168 193 18,000  Level Jacksonville Center
11:41AM 34.0317 -80.3367 276° West 182 209 18,000  Level Jacksonville Center
11:42AM 34.0411 -80.3939 281° West 182 209 18,000  Level Jacksonville Center
11:43AM 34.0486 -80.4539 279° West 182 209 18,000  Level Jacksonville Center
11:44AM 34.0561 -80.5114 279° West 182 209 18,000  Level Jacksonville Center
11:45AM 34.0614 -80.5714 276° West 182 209 18,000 240 Level Jacksonville Center
11:46AM 34.0706 -80.6264 281° West 182 209 18,500 540 Climbing Jacksonville Center
11:47AM 34.0758 -80.6789 277° West 177 204 19,100 480 Climbing Jacksonville Center
11:48AM 34.0828 -80.7261 280° West 166 191 19,500 420 Climbing Jacksonville Center
11:49AM 34.0900 -80.7814 279° West 161 185 20,000 240 Climbing Jacksonville Center
11:50AM 34.0950 -80.8364 276° West 161 185 20,000  Level Jacksonville Center
11:51AM 34.1044 -80.8939 281° West 166 191 20,000  Level Jacksonville Center
11:53AM 34.1200 -81.0128 279° West 164 189 20,000  Level Atlanta Center
11:54AM 34.1236 -81.0703 274° West 169 194 20,000  Level Atlanta Center
11:55AM 34.1314 -81.1278 279° West 180 207 20,000  Level Atlanta Center
11:56AM 34.1369 -81.1878 276° West 180 207 20,000  Level Atlanta Center
11:57AM 34.1464 -81.2453 281° West 175 201 20,000  Level Atlanta Center
11:58AM 34.1539 -81.3000 279° West 175 201 20,000  Level Atlanta Center
11:59AM 34.1572 -81.3528 274° West 170 196 20,000  Level Atlanta Center
12:00PM 34.1606 -81.4028 275° West 170 196 20,000  Level Atlanta Center
12:01PM 34.1553 -81.4533 263° West 165 190 20,000  Level Atlanta Center
12:02PM 34.1439 -81.5089 256° West 165 190 20,000  Level Atlanta Center
12:03PM 34.1386 -81.5642 263° West 165 190 20,000  Level Atlanta Center
12:04PM 34.1294 -81.6197 259° West 165 190 20,000  Level Atlanta Center
12:05PM 34.1242 -81.6750 263° West 165 190 20,000  Level Atlanta Center
12:06PM 34.1169 -81.7303 261° West 165 190 20,000  Level Atlanta Center
12:07PM 34.1097 -81.7858 261° West 165 190 20,000  Level Atlanta Center
12:08PM 34.1022 -81.8411 261° West 165 190 20,000  Level Atlanta Center
12:09PM 34.1011 -81.8964 269° West 165 190 20,000  Level Atlanta Center
12:10PM 34.1042 -81.9539 274° West 165 190 20,000  Level Atlanta Center
12:11PM 34.1197 -82.0089 289° West 165 190 20,000  Level Atlanta Center
12:12PM 34.1478 -82.0583 304° West 171 197 20,000  Level Atlanta Center
12:13PM 34.1922 -82.1000 322° Northwest 183 211 20,000  Level Atlanta Center
12:14PM 34.2344 -82.1392 323° Northwest 195 224 20,000  Level Atlanta Center
12:15PM 34.2811 -82.1758 327° Northwest 200 230 20,000  Level Atlanta Center
12:16PM 34.3358 -82.2125 331° Northwest 200 230 20,000  Level Atlanta Center
12:17PM 34.3842 -82.2442 332° Northwest 205 236 20,000  Level Atlanta Center
12:18PM 34.4347 -82.2758 333° Northwest 205 236 20,000  Level Atlanta Center
12:19PM 34.4833 -82.3075 332° Northwest 205 236 20,000  Level Atlanta Center
12:20PM 34.5297 -82.3394 330° Northwest 205 236 20,000  Level Atlanta Center
12:21PM 34.5803 -82.3736 331° Northwest 205 236 20,000  Level Atlanta Center
12:22PM 34.6264 -82.4031 332° Northwest 205 236 20,000  Level Atlanta Center
12:23PM 34.6769 -82.4350 333° Northwest 205 236 20,000  Level Atlanta Center
12:24PM 34.7256 -82.4667 332° Northwest 205 236 20,000  Level Atlanta Center
12:25PM 34.7739 -82.4986 332° Northwest 205 236 20,000  Level Atlanta Center
12:26PM 34.8203 -82.5308 330° Northwest 205 236 20,000  Level Atlanta Center
12:27PM 34.8686 -82.5628 332° Northwest 205 236 20,000  Level Atlanta Center
12:28PM 34.9169 -82.5925 333° Northwest 200 230 20,000  Level Atlanta Center
12:29PM 34.9631 -82.6244 330° Northwest 200 230 20,000  Level Atlanta Center
12:30PM 35.0094 -82.6592 328° Northwest 200 230 20,000  Level Atlanta Center
12:31PM 35.0578 -82.6889 333° Northwest 195 224 20,000  Level Atlanta Center
12:32PM 35.1019 -82.7186 331° Northwest 189 217 20,000  Level Atlanta Center
12:33PM 35.1461 -82.7458 333° Northwest 189 217 20,000  Level Atlanta Center
12:34PM 35.1903 -82.7756 331° Northwest 184 212 20,000  Level Atlanta Center
12:35PM 35.2344 -82.8131 325° Northwest 189 217 20,000  Level Atlanta Center
12:36PM 35.2825 -82.8378 337° Northwest 189 217 20,000  Level Atlanta Center
12:37PM 35.3267 -82.8653 333° Northwest 183 211 20,000 -120 Level Atlanta Center
12:38PM 35.3708 -82.8953 331° Northwest 183 211 19,800 -360 Descending Atlanta Center
12:39PM 35.4169 -82.9275 330° Northwest 183 211 19,300 -600 Descending Atlanta Center
12:40PM 35.4631 -82.9603 330° Northwest 183 211 18,700 -600 Descending Atlanta Center
12:41PM 35.5114 -82.9900 333° Northwest 189 217 18,100 -360 Descending Atlanta Center
12:42PM 35.5575 -83.0203 332° Northwest 189 217 18,000 -60 Descending Atlanta Center
12:43PM 35.5994 -83.0503 330° Northwest 183 211 18,000  Level Atlanta Center
12:44PM 35.6436 -83.0778 333° Northwest 178 205 18,000  Level Atlanta Center
12:45PM 35.6856 -83.1106 328° Northwest 178 205 18,000  Level Atlanta Center
12:46PM 35.7294 -83.1383 333° Northwest 178 205 18,000  Level Atlanta Center
12:47PM 35.7694 -83.1658 331° Northwest 173 199 18,000  Level Atlanta Center
12:48PM 35.8114 -83.1964 329° Northwest 173 199 18,000  Level Atlanta Center
12:49PM 35.8533 -83.2239 332° Northwest 173 199 18,000  Level Atlanta Center
12:50PM 35.8931 -83.2519 330° Northwest 167 192 18,000 -60 Level Atlanta Center
12:51PM 35.9350 -83.2822 330° Northwest 167 192 17,900 -360 Descending Atlanta Center
12:52PM 35.9853 -83.3150 332° Northwest 172 198 17,300 -660 Descending Atlanta Center
12:53PM 36.0397 -83.3506 332° Northwest 187 215 16,600 -660 Descending Atlanta Center
12:54PM 36.0878 -83.3861 329° Northwest 201 231 16,000 -660 Descending Atlanta Center
12:55PM 36.1403 -83.4192 333° Northwest 206 237 15,300 -780 Descending Atlanta Center
12:56PM 36.1903 -83.4547 330° Northwest 206 237 14,500 -780 Descending Atlanta Center
12:57PM 36.2406 -83.4878 332° Northwest 206 237 13,800 -720 Descending Atlanta Center
12:58PM 36.2908 -83.5236 330° Northwest 206 237 13,100 -780 Descending Atlanta Center
12:59PM 36.3431 -83.5592 331° Northwest 211 243 12,300 -780 Descending Atlanta Center
01:01PM 36.4100 -83.6042 332° Northwest 212 244 11,400 -720 Descending Indianapolis Center
01:02PM 36.4603 -83.6383 331° Northwest 210 242 10,700 -720 Descending Indianapolis Center
01:03PM 36.5106 -83.6739 330° Northwest 208 239 10,000 -780 Descending Indianapolis Center
01:04PM 36.5619 -83.7097 331° Northwest 206 237 9,200 -780 Descending Indianapolis Center
01:05PM 36.6086 -83.7422 331° Northwest 198 228 8,500 -720 Descending Indianapolis Center
01:06PM 36.6511 -83.7719 331° Northwest 183 211 7,800 -660 Descending Indianapolis Center
01:07PM 36.7022 -83.8078 331° Northwest 180 207 7,200 -600 Descending Indianapolis Center
01:08PM 36.7500 -83.8411 331° Northwest 190 219 6,600 -540 Descending Indianapolis Center
01:09PM 36.7964 -83.8739 331° Northwest 191 220 6,100 -540 Descending Indianapolis Center
01:10PM 36.8422 -83.9061 331° Northwest 189 217 5,500 -540 Descending Indianapolis Center
01:11PM 36.8858 -83.9361 331° Northwest 182 209 5,100 -420 Descending Indianapolis Center